sensor_id;sensor_type;location;lat;lon;timestamp;P1;durP1;ratioP1;P2;durP2;ratioP2
57899;SDS011;60605;53.716;19.940;2022-09-09T00:21:03;5.00;;;2.50;;
57899;SDS011;60605;53.716;19.940;2022-09-09T00:31:15;3.80;;;2.20;;
57899;SDS011;60605;53.716;19.940;2022-09-09T00:36:23;4.40;;;2.10;;
57899;SDS011;60605;53.716;19.940;2022-09-09T00:58:17;2.90;;;1.80;;
57899;SDS011;60605;53.716;19.940;2022-09-09T01:14:03;3.80;;;2.20;;
57899;SDS011;60605;53.716;19.940;2022-09-09T01:19:18;6.20;;;2.80;;
57899;SDS011;60605;53.716;19.940;2022-09-09T01:24:38;2.70;;;2.10;;
57899;SDS011;60605;53.716;19.940;2022-09-09T01:29:49;3.20;;;2.00;;
57899;SDS011;60605;53.716;19.940;2022-09-09T01:34:51;5.70;;;2.20;;
57899;SDS011;60605;53.716;19.940;2022-09-09T01:39:53;2.60;;;1.90;;
57899;SDS011;60605;53.716;19.940;2022-09-09T01:44:55;3.00;;;2.20;;
57899;SDS011;60605;53.716;19.940;2022-09-09T01:49:57;5.60;;;2.20;;
57899;SDS011;60605;53.716;19.940;2022-09-09T01:55:00;3.70;;;2.00;;
57899;SDS011;60605;53.716;19.940;2022-09-09T02:00:07;2.30;;;1.90;;
57899;SDS011;60605;53.716;19.940;2022-09-09T02:05:28;3.20;;;1.90;;
57899;SDS011;60605;53.716;19.940;2022-09-09T02:10:45;2.90;;;2.00;;
57899;SDS011;60605;53.716;19.940;2022-09-09T02:20:56;2.80;;;2.00;;
57899;SDS011;60605;53.716;19.940;2022-09-09T02:26:00;4.10;;;1.90;;
57899;SDS011;60605;53.716;19.940;2022-09-09T02:31:05;4.60;;;2.30;;
57899;SDS011;60605;53.716;19.940;2022-09-09T02:36:08;5.50;;;2.00;;
57899;SDS011;60605;53.716;19.940;2022-09-09T02:41:13;7.10;;;1.90;;
57899;SDS011;60605;53.716;19.940;2022-09-09T02:46:27;7.20;;;2.00;;
57899;SDS011;60605;53.716;19.940;2022-09-09T02:51:51;4.50;;;2.30;;
57899;SDS011;60605;53.716;19.940;2022-09-09T03:02:03;2.60;;;1.80;;
57899;SDS011;60605;53.716;19.940;2022-09-09T03:07:06;3.20;;;2.20;;
57899;SDS011;60605;53.716;19.940;2022-09-09T03:12:07;6.00;;;2.40;;
57899;SDS011;60605;53.716;19.940;2022-09-09T03:22:13;2.90;;;2.30;;
57899;SDS011;60605;53.716;19.940;2022-09-09T03:27:14;3.20;;;2.20;;
57899;SDS011;60605;53.716;19.940;2022-09-09T03:32:17;3.50;;;2.30;;
57899;SDS011;60605;53.716;19.940;2022-09-09T03:37:20;2.90;;;2.40;;
57899;SDS011;60605;53.716;19.940;2022-09-09T03:42:22;4.80;;;2.20;;
57899;SDS011;60605;53.716;19.940;2022-09-09T03:47:24;5.00;;;2.70;;
57899;SDS011;60605;53.716;19.940;2022-09-09T03:52:25;3.30;;;2.80;;
57899;SDS011;60605;53.716;19.940;2022-09-09T03:57:28;4.50;;;2.50;;
57899;SDS011;60605;53.716;19.940;2022-09-09T04:02:31;3.90;;;2.40;;
57899;SDS011;60605;53.716;19.940;2022-09-09T04:07:33;3.40;;;2.40;;
57899;SDS011;60605;53.716;19.940;2022-09-09T04:12:35;6.90;;;3.00;;
57899;SDS011;60605;53.716;19.940;2022-09-09T04:17:37;3.40;;;3.10;;
57899;SDS011;60605;53.716;19.940;2022-09-09T04:22:39;4.00;;;2.90;;
57899;SDS011;60605;53.716;19.940;2022-09-09T04:27:41;3.00;;;2.70;;
57899;SDS011;60605;53.716;19.940;2022-09-09T04:32:44;5.70;;;3.30;;
57899;SDS011;60605;53.716;19.940;2022-09-09T04:37:46;4.00;;;3.50;;
57899;SDS011;60605;53.716;19.940;2022-09-09T04:42:47;11.50;;;7.10;;
57899;SDS011;60605;53.716;19.940;2022-09-09T04:47:50;4.90;;;2.90;;
57899;SDS011;60605;53.716;19.940;2022-09-09T04:52:52;4.10;;;3.10;;
57899;SDS011;60605;53.716;19.940;2022-09-09T04:57:54;4.30;;;3.10;;
57899;SDS011;60605;53.716;19.940;2022-09-09T05:02:56;3.50;;;3.00;;
57899;SDS011;60605;53.716;19.940;2022-09-09T05:08:01;4.20;;;2.90;;
57899;SDS011;60605;53.716;19.940;2022-09-09T05:13:04;3.80;;;2.80;;
57899;SDS011;60605;53.716;19.940;2022-09-09T05:23:10;3.40;;;2.90;;
57899;SDS011;60605;53.716;19.940;2022-09-09T05:28:13;7.00;;;3.30;;
57899;SDS011;60605;53.716;19.940;2022-09-09T05:33:15;3.60;;;3.00;;
57899;SDS011;60605;53.716;19.940;2022-09-09T05:38:17;6.70;;;3.00;;
57899;SDS011;60605;53.716;19.940;2022-09-09T05:43:19;3.60;;;3.30;;
57899;SDS011;60605;53.716;19.940;2022-09-09T05:48:21;4.50;;;3.50;;
57899;SDS011;60605;53.716;19.940;2022-09-09T05:53:23;5.10;;;3.40;;
57899;SDS011;60605;53.716;19.940;2022-09-09T05:58:26;4.00;;;3.60;;
57899;SDS011;60605;53.716;19.940;2022-09-09T06:03:28;5.70;;;3.70;;
57899;SDS011;60605;53.716;19.940;2022-09-09T06:08:30;5.20;;;3.80;;
57899;SDS011;60605;53.716;19.940;2022-09-09T06:13:33;6.20;;;3.40;;
57899;SDS011;60605;53.716;19.940;2022-09-09T06:18:35;4.10;;;3.30;;
57899;SDS011;60605;53.716;19.940;2022-09-09T06:23:38;6.60;;;3.50;;
57899;SDS011;60605;53.716;19.940;2022-09-09T06:28:41;5.60;;;3.60;;
57899;SDS011;60605;53.716;19.940;2022-09-09T06:33:44;7.10;;;4.60;;
57899;SDS011;60605;53.716;19.940;2022-09-09T06:38:46;4.30;;;4.00;;
57899;SDS011;60605;53.716;19.940;2022-09-09T06:43:48;6.40;;;3.90;;
57899;SDS011;60605;53.716;19.940;2022-09-09T06:48:50;4.90;;;4.20;;
57899;SDS011;60605;53.716;19.940;2022-09-09T06:53:54;6.30;;;4.30;;
57899;SDS011;60605;53.716;19.940;2022-09-09T06:58:58;7.70;;;4.70;;
57899;SDS011;60605;53.716;19.940;2022-09-09T07:04:03;8.20;;;5.00;;
57899;SDS011;60605;53.716;19.940;2022-09-09T07:09:10;10.20;;;5.40;;
57899;SDS011;60605;53.716;19.940;2022-09-09T07:14:13;6.90;;;4.80;;
57899;SDS011;60605;53.716;19.940;2022-09-09T07:19:16;9.70;;;6.30;;
57899;SDS011;60605;53.716;19.940;2022-09-09T07:24:19;9.20;;;6.20;;
57899;SDS011;60605;53.716;19.940;2022-09-09T07:29:20;10.60;;;6.30;;
57899;SDS011;60605;53.716;19.940;2022-09-09T07:34:22;9.80;;;6.40;;
57899;SDS011;60605;53.716;19.940;2022-09-09T07:39:24;11.10;;;6.70;;
57899;SDS011;60605;53.716;19.940;2022-09-09T07:44:26;8.80;;;6.90;;
57899;SDS011;60605;53.716;19.940;2022-09-09T07:49:28;21.30;;;12.20;;
57899;SDS011;60605;53.716;19.940;2022-09-09T07:54:33;8.90;;;6.80;;
57899;SDS011;60605;53.716;19.940;2022-09-09T07:59:35;8.00;;;6.70;;
57899;SDS011;60605;53.716;19.940;2022-09-09T08:04:37;12.10;;;8.00;;
57899;SDS011;60605;53.716;19.940;2022-09-09T08:09:39;27.60;;;11.80;;
57899;SDS011;60605;53.716;19.940;2022-09-09T08:19:44;8.70;;;7.40;;
57899;SDS011;60605;53.716;19.940;2022-09-09T08:24:47;11.20;;;7.30;;
57899;SDS011;60605;53.716;19.940;2022-09-09T08:29:49;13.80;;;7.90;;
57899;SDS011;60605;53.716;19.940;2022-09-09T08:34:51;9.00;;;6.60;;
57899;SDS011;60605;53.716;19.940;2022-09-09T08:39:55;12.40;;;8.20;;
57899;SDS011;60605;53.716;19.940;2022-09-09T08:45:01;10.20;;;8.40;;
57899;SDS011;60605;53.716;19.940;2022-09-09T09:00:33;13.20;;;11.30;;
57899;SDS011;60605;53.716;19.940;2022-09-09T09:06:19;10.90;;;9.10;;
57899;SDS011;60605;53.716;19.940;2022-09-09T09:11:45;134.90;;;40.70;;
57899;SDS011;60605;53.716;19.940;2022-09-09T09:17:05;38.10;;;14.30;;
57899;SDS011;60605;53.716;19.940;2022-09-09T09:33:13;7.20;;;6.10;;
57899;SDS011;60605;53.716;19.940;2022-09-09T09:38:25;12.90;;;8.20;;
57899;SDS011;60605;53.716;19.940;2022-09-09T09:43:53;10.80;;;6.90;;
57899;SDS011;60605;53.716;19.940;2022-09-09T09:49:05;7.20;;;5.70;;
57899;SDS011;60605;53.716;19.940;2022-09-09T09:59:59;45.10;;;17.60;;
57899;SDS011;60605;53.716;19.940;2022-09-09T10:04:45;7.80;;;6.10;;
57899;SDS011;60605;53.716;19.940;2022-09-09T10:09:52;6.80;;;5.40;;
57899;SDS011;60605;53.716;19.940;2022-09-09T10:31:31;6.10;;;5.50;;
57899;SDS011;60605;53.716;19.940;2022-09-09T10:36:49;10.80;;;7.40;;
57899;SDS011;60605;53.716;19.940;2022-09-09T10:57:59;6.30;;;5.70;;
57899;SDS011;60605;53.716;19.940;2022-09-09T11:03:29;7.80;;;5.90;;
57899;SDS011;60605;53.716;19.940;2022-09-09T11:08:31;7.10;;;6.30;;
57899;SDS011;60605;53.716;19.940;2022-09-09T11:18:57;7.60;;;6.80;;
57899;SDS011;60605;53.716;19.940;2022-09-09T11:24:06;11.20;;;8.90;;
57899;SDS011;60605;53.716;19.940;2022-09-09T11:45:28;10.20;;;9.20;;
57899;SDS011;60605;53.716;19.940;2022-09-09T11:50:33;11.90;;;10.10;;
57899;SDS011;60605;53.716;19.940;2022-09-09T11:55:38;13.00;;;11.70;;
57899;SDS011;60605;53.716;19.940;2022-09-09T12:00:46;13.10;;;10.70;;
57899;SDS011;60605;53.716;19.940;2022-09-09T12:05:49;32.00;;;26.60;;
57899;SDS011;60605;53.716;19.940;2022-09-09T12:10:56;16.60;;;12.20;;
57899;SDS011;60605;53.716;19.940;2022-09-09T12:16:04;11.20;;;10.20;;
57899;SDS011;60605;53.716;19.940;2022-09-09T12:32:27;10.40;;;8.90;;
57899;SDS011;60605;53.716;19.940;2022-09-09T12:37:47;12.00;;;8.70;;
57899;SDS011;60605;53.716;19.940;2022-09-09T12:42:55;9.60;;;8.70;;
57899;SDS011;60605;53.716;19.940;2022-09-09T12:47:58;11.70;;;10.60;;
57899;SDS011;60605;53.716;19.940;2022-09-09T12:53:10;30.00;;;21.50;;
57899;SDS011;60605;53.716;19.940;2022-09-09T12:58:18;47.10;;;26.10;;
57899;SDS011;60605;53.716;19.940;2022-09-09T13:03:22;11.20;;;9.90;;
57899;SDS011;60605;53.716;19.940;2022-09-09T13:08:26;124.00;;;77.00;;
57899;SDS011;60605;53.716;19.940;2022-09-09T13:18:41;33.70;;;18.50;;
57899;SDS011;60605;53.716;19.940;2022-09-09T13:23:48;44.80;;;32.70;;
57899;SDS011;60605;53.716;19.940;2022-09-09T13:28:53;18.60;;;11.30;;
57899;SDS011;60605;53.716;19.940;2022-09-09T13:33:56;10.40;;;8.50;;
57899;SDS011;60605;53.716;19.940;2022-09-09T13:38:59;22.20;;;18.30;;
57899;SDS011;60605;53.716;19.940;2022-09-09T13:44:03;30.50;;;15.90;;
57899;SDS011;60605;53.716;19.940;2022-09-09T13:54:14;40.60;;;23.70;;
57899;SDS011;60605;53.716;19.940;2022-09-09T13:59:18;11.50;;;10.10;;
57899;SDS011;60605;53.716;19.940;2022-09-09T14:04:24;18.60;;;11.60;;
57899;SDS011;60605;53.716;19.940;2022-09-09T14:09:26;20.00;;;13.40;;
57899;SDS011;60605;53.716;19.940;2022-09-09T14:14:28;31.10;;;18.50;;
57899;SDS011;60605;53.716;19.940;2022-09-09T14:19:30;19.90;;;14.70;;
57899;SDS011;60605;53.716;19.940;2022-09-09T14:24:32;31.80;;;17.40;;
57899;SDS011;60605;53.716;19.940;2022-09-09T14:29:34;26.60;;;14.90;;
57899;SDS011;60605;53.716;19.940;2022-09-09T14:34:36;22.20;;;13.70;;
57899;SDS011;60605;53.716;19.940;2022-09-09T14:39:38;10.40;;;8.90;;
57899;SDS011;60605;53.716;19.940;2022-09-09T14:44:41;16.50;;;10.70;;
57899;SDS011;60605;53.716;19.940;2022-09-09T14:49:43;21.70;;;14.40;;
57899;SDS011;60605;53.716;19.940;2022-09-09T14:54:48;46.00;;;22.90;;
57899;SDS011;60605;53.716;19.940;2022-09-09T14:59:50;18.80;;;12.70;;
57899;SDS011;60605;53.716;19.940;2022-09-09T15:04:52;36.00;;;23.80;;
57899;SDS011;60605;53.716;19.940;2022-09-09T15:09:58;17.70;;;12.70;;
57899;SDS011;60605;53.716;19.940;2022-09-09T15:15:00;14.70;;;10.80;;
57899;SDS011;60605;53.716;19.940;2022-09-09T15:20:03;16.60;;;12.30;;
57899;SDS011;60605;53.716;19.940;2022-09-09T15:25:11;52.40;;;46.60;;
57899;SDS011;60605;53.716;19.940;2022-09-09T15:30:15;177.90;;;113.90;;
57899;SDS011;60605;53.716;19.940;2022-09-09T15:35:17;224.60;;;98.30;;
57899;SDS011;60605;53.716;19.940;2022-09-09T15:40:19;22.60;;;15.10;;
57899;SDS011;60605;53.716;19.940;2022-09-09T15:45:21;26.70;;;15.00;;
57899;SDS011;60605;53.716;19.940;2022-09-09T15:50:23;42.40;;;29.10;;
57899;SDS011;60605;53.716;19.940;2022-09-09T15:55:25;41.10;;;21.70;;
57899;SDS011;60605;53.716;19.940;2022-09-09T16:00:27;24.50;;;15.30;;
57899;SDS011;60605;53.716;19.940;2022-09-09T16:05:30;31.20;;;18.50;;
57899;SDS011;60605;53.716;19.940;2022-09-09T16:10:32;32.00;;;16.60;;
57899;SDS011;60605;53.716;19.940;2022-09-09T16:15:34;32.10;;;20.00;;
57899;SDS011;60605;53.716;19.940;2022-09-09T16:20:36;32.30;;;22.40;;
57899;SDS011;60605;53.716;19.940;2022-09-09T16:25:38;26.50;;;21.30;;
57899;SDS011;60605;53.716;19.940;2022-09-09T16:30:40;27.20;;;19.80;;
57899;SDS011;60605;53.716;19.940;2022-09-09T16:35:43;23.40;;;16.30;;
57899;SDS011;60605;53.716;19.940;2022-09-09T16:40:45;20.70;;;15.80;;
57899;SDS011;60605;53.716;19.940;2022-09-09T16:45:47;23.00;;;17.50;;
57899;SDS011;60605;53.716;19.940;2022-09-09T16:50:49;43.10;;;23.40;;
57899;SDS011;60605;53.716;19.940;2022-09-09T16:55:53;24.80;;;19.30;;
57899;SDS011;60605;53.716;19.940;2022-09-09T17:00:59;55.90;;;35.30;;
57899;SDS011;60605;53.716;19.940;2022-09-09T17:06:08;21.60;;;15.20;;
57899;SDS011;60605;53.716;19.940;2022-09-09T17:11:18;29.20;;;21.30;;
57899;SDS011;60605;53.716;19.940;2022-09-09T17:16:29;24.00;;;17.30;;
57899;SDS011;60605;53.716;19.940;2022-09-09T17:21:36;30.90;;;21.00;;
57899;SDS011;60605;53.716;19.940;2022-09-09T17:26:56;30.90;;;23.30;;
57899;SDS011;60605;53.716;19.940;2022-09-09T17:31:59;30.70;;;23.30;;
57899;SDS011;60605;53.716;19.940;2022-09-09T17:37:02;43.60;;;23.60;;
57899;SDS011;60605;53.716;19.940;2022-09-09T17:42:10;30.80;;;21.00;;
57899;SDS011;60605;53.716;19.940;2022-09-09T17:47:12;43.10;;;28.20;;
57899;SDS011;60605;53.716;19.940;2022-09-09T17:52:15;19.50;;;14.80;;
57899;SDS011;60605;53.716;19.940;2022-09-09T17:57:24;20.50;;;13.70;;
57899;SDS011;60605;53.716;19.940;2022-09-09T18:02:28;37.30;;;23.00;;
57899;SDS011;60605;53.716;19.940;2022-09-09T18:07:30;21.80;;;15.00;;
57899;SDS011;60605;53.716;19.940;2022-09-09T18:12:34;23.60;;;17.70;;
57899;SDS011;60605;53.716;19.940;2022-09-09T18:17:37;25.20;;;18.30;;
57899;SDS011;60605;53.716;19.940;2022-09-09T18:27:44;29.20;;;17.00;;
57899;SDS011;60605;53.716;19.940;2022-09-09T18:32:49;22.70;;;14.10;;
57899;SDS011;60605;53.716;19.940;2022-09-09T18:37:55;26.60;;;19.90;;
57899;SDS011;60605;53.716;19.940;2022-09-09T18:43:00;25.30;;;16.90;;
57899;SDS011;60605;53.716;19.940;2022-09-09T18:48:11;22.90;;;16.30;;
57899;SDS011;60605;53.716;19.940;2022-09-09T18:53:17;35.60;;;23.70;;
57899;SDS011;60605;53.716;19.940;2022-09-09T18:58:24;28.00;;;18.30;;
57899;SDS011;60605;53.716;19.940;2022-09-09T19:03:28;36.40;;;21.10;;
57899;SDS011;60605;53.716;19.940;2022-09-09T19:08:40;24.50;;;17.40;;
57899;SDS011;60605;53.716;19.940;2022-09-09T19:13:51;22.80;;;15.60;;
57899;SDS011;60605;53.716;19.940;2022-09-09T19:19:00;24.00;;;17.80;;
57899;SDS011;60605;53.716;19.940;2022-09-09T19:24:27;26.70;;;20.90;;
57899;SDS011;60605;53.716;19.940;2022-09-09T19:29:32;27.10;;;19.40;;
57899;SDS011;60605;53.716;19.940;2022-09-09T19:34:40;28.00;;;19.80;;
57899;SDS011;60605;53.716;19.940;2022-09-09T19:39:45;25.60;;;16.50;;
57899;SDS011;60605;53.716;19.940;2022-09-09T19:44:52;22.70;;;16.60;;
57899;SDS011;60605;53.716;19.940;2022-09-09T19:49:56;15.90;;;12.80;;
57899;SDS011;60605;53.716;19.940;2022-09-09T19:55:00;17.60;;;11.60;;
57899;SDS011;60605;53.716;19.940;2022-09-09T20:05:14;14.50;;;10.40;;
57899;SDS011;60605;53.716;19.940;2022-09-09T20:10:18;14.20;;;9.70;;
57899;SDS011;60605;53.716;19.940;2022-09-09T20:15:21;12.50;;;8.50;;
57899;SDS011;60605;53.716;19.940;2022-09-09T20:20:24;11.00;;;7.60;;
57899;SDS011;60605;53.716;19.940;2022-09-09T20:25:34;10.50;;;7.20;;
57899;SDS011;60605;53.716;19.940;2022-09-09T20:30:38;9.90;;;7.10;;
57899;SDS011;60605;53.716;19.940;2022-09-09T20:35:42;12.60;;;8.10;;
57899;SDS011;60605;53.716;19.940;2022-09-09T20:40:46;8.80;;;7.20;;
57899;SDS011;60605;53.716;19.940;2022-09-09T20:45:50;11.90;;;8.70;;
57899;SDS011;60605;53.716;19.940;2022-09-09T20:50:55;13.90;;;9.80;;
57899;SDS011;60605;53.716;19.940;2022-09-09T20:56:00;14.30;;;9.60;;
57899;SDS011;60605;53.716;19.940;2022-09-09T21:01:03;12.20;;;9.10;;
57899;SDS011;60605;53.716;19.940;2022-09-09T21:06:09;11.00;;;8.10;;
57899;SDS011;60605;53.716;19.940;2022-09-09T21:11:12;9.90;;;8.60;;
57899;SDS011;60605;53.716;19.940;2022-09-09T21:16:16;10.10;;;7.90;;
57899;SDS011;60605;53.716;19.940;2022-09-09T21:21:22;10.10;;;7.30;;
57899;SDS011;60605;53.716;19.940;2022-09-09T21:26:25;10.00;;;7.80;;
57899;SDS011;60605;53.716;19.940;2022-09-09T21:31:27;11.00;;;8.80;;
57899;SDS011;60605;53.716;19.940;2022-09-09T21:36:29;12.90;;;9.80;;
57899;SDS011;60605;53.716;19.940;2022-09-09T21:41:31;11.90;;;9.90;;
57899;SDS011;60605;53.716;19.940;2022-09-09T21:46:33;12.50;;;8.30;;
57899;SDS011;60605;53.716;19.940;2022-09-09T21:51:37;10.30;;;8.20;;
57899;SDS011;60605;53.716;19.940;2022-09-09T21:56:39;9.60;;;7.60;;
57899;SDS011;60605;53.716;19.940;2022-09-09T22:01:41;10.60;;;8.00;;
57899;SDS011;60605;53.716;19.940;2022-09-09T22:06:43;11.60;;;8.50;;
57899;SDS011;60605;53.716;19.940;2022-09-09T22:11:45;10.00;;;7.50;;
57899;SDS011;60605;53.716;19.940;2022-09-09T22:16:47;9.40;;;7.40;;
57899;SDS011;60605;53.716;19.940;2022-09-09T22:21:48;9.20;;;7.10;;
57899;SDS011;60605;53.716;19.940;2022-09-09T22:26:50;8.20;;;6.30;;
57899;SDS011;60605;53.716;19.940;2022-09-09T22:31:56;8.90;;;6.10;;
57899;SDS011;60605;53.716;19.940;2022-09-09T22:36:58;7.80;;;5.70;;
57899;SDS011;60605;53.716;19.940;2022-09-09T22:42:02;6.20;;;5.40;;
57899;SDS011;60605;53.716;19.940;2022-09-09T22:47:06;8.30;;;6.30;;
57899;SDS011;60605;53.716;19.940;2022-09-09T22:52:08;5.50;;;5.00;;
57899;SDS011;60605;53.716;19.940;2022-09-09T22:57:11;5.80;;;5.10;;
57899;SDS011;60605;53.716;19.940;2022-09-09T23:02:14;6.40;;;5.70;;
57899;SDS011;60605;53.716;19.940;2022-09-09T23:07:16;7.00;;;5.50;;
57899;SDS011;60605;53.716;19.940;2022-09-09T23:12:21;5.70;;;5.10;;
57899;SDS011;60605;53.716;19.940;2022-09-09T23:17:23;5.30;;;4.80;;
57899;SDS011;60605;53.716;19.940;2022-09-09T23:22:25;5.60;;;5.10;;
57899;SDS011;60605;53.716;19.940;2022-09-09T23:27:28;5.90;;;5.40;;
57899;SDS011;60605;53.716;19.940;2022-09-09T23:32:31;5.00;;;4.50;;
57899;SDS011;60605;53.716;19.940;2022-09-09T23:37:33;6.60;;;5.00;;
57899;SDS011;60605;53.716;19.940;2022-09-09T23:42:35;6.50;;;5.00;;
57899;SDS011;60605;53.716;19.940;2022-09-09T23:47:37;5.10;;;4.60;;
57899;SDS011;60605;53.716;19.940;2022-09-09T23:52:39;8.40;;;5.20;;
57899;SDS011;60605;53.716;19.940;2022-09-09T23:57:44;5.90;;;5.00;;
